Hlavní strana
METAR-TAF:

METAR-TAF

Letiště :

Millington, Tennessee, Spojené státy americké

zeměpisná šířka: 35-21-24N, zeměpisná délka: 089-52-13W, výška: 98 m

Aktuální stav počasí

Zpráva byla vytvořena před 52 minutami, v 13:50 UTC
Jihojihovýchodní vítr 3 kt
Teplota 2°C
Vlhkost vzduchu 100%
Tlak 1022 hPa
Viditelnost: 16.1 km
Jasno

METAR: KNQA 031350Z 15003KT 10SM CLR 02/02 A3017

Čas: 08:42 (14:42 UTC)


TAF: chybějící

Stav a předpovědi počasí z více než 4 000 letišť (zprávy METAR a TAF).

Červené a žluté tečky na mapě představují dostupné meteorologické stanice.

Když kurzor umístíte na tečku, zobrazí se název stanice.

Pak kliknutím zobrazíte stav a předpověď počasí.

Chcete-li změnit mapu, kliknutím na zelené tlačítko se znaménkem +mapu přiblížíte, kliknutím na zelené tlačítko se znaménkem – mapu oddálíte a kliknutím na zelené šipky přejdete na sousední mapy.


METAR-TAF: